createdAt,value
2018-09-02T00:00:33.417Z,20.81
2018-09-02T00:01:33.431Z,20.81
2018-09-02T00:02:33.393Z,20.78
2018-09-02T00:03:33.383Z,20.75
2018-09-02T00:04:33.371Z,20.85
2018-09-02T00:05:33.359Z,20.85
2018-09-02T00:06:33.375Z,20.82
2018-09-02T00:07:33.341Z,20.75
2018-09-02T00:08:33.327Z,20.71
2018-09-02T00:09:33.315Z,20.78
2018-09-02T00:10:33.306Z,20.79
2018-09-02T00:11:33.317Z,20.76
2018-09-02T00:12:33.283Z,20.73
2018-09-02T00:13:33.273Z,20.73
2018-09-02T00:14:33.261Z,20.71
2018-09-02T00:15:33.252Z,20.72
2018-09-02T00:16:33.264Z,20.69
2018-09-02T00:17:33.228Z,20.69
2018-09-02T00:18:33.216Z,20.72
2018-09-02T00:19:33.205Z,20.69
2018-09-02T00:20:33.237Z,20.72
2018-09-02T00:21:33.207Z,20.68
2018-09-02T00:22:33.172Z,20.75
2018-09-02T00:23:33.159Z,20.69
2018-09-02T00:24:33.153Z,20.75
2018-09-02T00:25:33.138Z,20.71
2018-09-02T00:26:33.152Z,20.73
2018-09-02T00:27:33.115Z,20.73
2018-09-02T00:28:33.103Z,20.72
2018-09-02T00:29:33.093Z,20.71
2018-09-02T00:30:33.086Z,20.68
2018-09-02T00:31:33.099Z,20.75
2018-09-02T00:32:33.060Z,20.75
2018-09-02T00:33:33.050Z,20.71
2018-09-02T00:34:33.039Z,20.66
2018-09-02T00:35:33.029Z,20.75
2018-09-02T00:36:33.046Z,20.71
2018-09-02T00:37:33.005Z,20.75
2018-09-02T00:38:32.993Z,20.69
2018-09-02T00:39:32.983Z,20.76
2018-09-02T00:40:32.972Z,20.73
2018-09-02T00:41:32.987Z,20.78
2018-09-02T00:42:32.947Z,20.72
2018-09-02T00:43:32.938Z,20.78
2018-09-02T00:44:32.927Z,20.63
2018-09-02T00:45:32.915Z,20.76
2018-09-02T00:46:32.930Z,20.72
2018-09-02T00:47:32.892Z,20.73
2018-09-02T00:48:32.882Z,20.72
2018-09-02T00:49:32.873Z,20.69
2018-09-02T00:50:32.859Z,20.68
2018-09-02T00:51:32.872Z,20.60
2018-09-02T00:52:32.837Z,20.75
2018-09-02T00:53:32.825Z,20.68
2018-09-02T00:54:32.816Z,20.72
2018-09-02T00:55:32.805Z,20.73
2018-09-02T00:56:32.817Z,20.63
2018-09-02T00:57:32.807Z,20.73
2018-09-02T00:58:32.773Z,20.68
2018-09-02T00:59:32.760Z,20.73
2018-09-02T01:00:32.749Z,20.66
2018-09-02T01:01:32.738Z,20.64
2018-09-02T01:02:32.752Z,20.73
2018-09-02T01:03:32.715Z,20.63
2018-09-02T01:04:32.703Z,20.66
2018-09-02T01:05:32.692Z,20.68
2018-09-02T01:06:32.683Z,20.64
2018-09-02T01:07:32.696Z,20.64
2018-09-02T01:08:32.659Z,20.68
2018-09-02T01:09:32.646Z,20.68
2018-09-02T01:10:32.635Z,20.68
2018-09-02T01:11:32.633Z,20.60
2018-09-02T01:12:32.644Z,20.64
2018-09-02T01:13:32.605Z,20.61
2018-09-02T01:14:32.590Z,20.60
2018-09-02T01:15:32.581Z,20.66
2018-09-02T01:16:32.577Z,20.58
2018-09-02T01:17:32.582Z,20.61
2018-09-02T01:18:32.550Z,20.58
2018-09-02T01:19:32.536Z,20.66
2018-09-02T01:20:32.530Z,20.66
2018-09-02T01:21:32.516Z,20.57
2018-09-02T01:22:32.526Z,20.64
2018-09-02T01:23:32.492Z,20.56
2018-09-02T01:24:32.482Z,20.61
2018-09-02T01:25:32.473Z,20.60
2018-09-02T01:26:32.459Z,20.68
2018-09-02T01:27:32.473Z,20.64
2018-09-02T01:28:32.443Z,20.61
2018-09-02T01:29:32.425Z,20.61
2018-09-02T01:30:32.415Z,20.63
2018-09-02T01:31:32.405Z,20.61
2018-09-02T01:32:32.417Z,20.58
2018-09-02T01:33:32.381Z,20.61
2018-09-02T01:34:32.369Z,20.63
2018-09-02T01:35:32.358Z,20.66
2018-09-02T01:36:32.350Z,20.63
2018-09-02T01:37:32.360Z,20.61
2018-09-02T01:38:32.325Z,20.61
2018-09-02T01:39:32.314Z,20.58
2018-09-02T01:40:32.303Z,20.66
2018-09-02T01:41:32.290Z,20.63
2018-09-02T01:42:32.305Z,20.56
2018-09-02T01:43:32.270Z,20.63
2018-09-02T01:44:32.259Z,20.58
2018-09-02T01:45:32.247Z,20.58
2018-09-02T01:46:32.236Z,20.63
2018-09-02T01:47:32.250Z,20.58
2018-09-02T01:48:32.214Z,20.56
2018-09-02T01:49:32.202Z,20.66
2018-09-02T01:50:32.193Z,20.61
2018-09-02T01:51:32.181Z,20.54
2018-09-02T01:52:32.194Z,20.57
2018-09-02T01:53:32.162Z,20.53
2018-09-02T01:54:32.147Z,20.56
2018-09-02T01:55:32.133Z,20.54
2018-09-02T01:56:32.124Z,20.53
2018-09-02T01:57:32.139Z,20.57
2018-09-02T01:58:32.101Z,20.54
2018-09-02T01:59:32.089Z,20.53
2018-09-02T02:00:32.078Z,20.56
2018-09-02T02:01:32.068Z,20.57
2018-09-02T02:02:32.084Z,20.54
2018-09-02T02:03:32.048Z,20.56
2018-09-02T02:04:32.036Z,20.51
2018-09-02T02:05:32.024Z,20.54
2018-09-02T02:06:32.019Z,20.46
2018-09-02T02:07:32.028Z,20.54
2018-09-02T02:08:31.991Z,20.54
2018-09-02T02:09:31.980Z,20.51
2018-09-02T02:10:31.971Z,20.42
2018-09-02T02:11:31.958Z,20.51
2018-09-02T02:12:31.972Z,20.53
2018-09-02T02:13:31.935Z,20.54
2018-09-02T02:14:31.923Z,20.46
2018-09-02T02:15:31.914Z,20.44
2018-09-02T02:16:31.901Z,20.53
2018-09-02T02:17:31.915Z,20.44
2018-09-02T02:18:31.883Z,20.48
2018-09-02T02:19:31.875Z,20.46
2018-09-02T02:20:31.857Z,20.46
2018-09-02T02:21:31.847Z,20.41
2018-09-02T02:22:31.861Z,20.41
2018-09-02T02:23:31.828Z,20.46
2018-09-02T02:24:31.874Z,20.41
2018-09-02T02:25:31.803Z,20.41
2018-09-02T02:26:31.789Z,20.40
2018-09-02T02:27:31.805Z,20.41
2018-09-02T02:28:31.768Z,20.44
2018-09-02T02:29:31.757Z,20.46
2018-09-02T02:30:31.745Z,20.41
2018-09-02T02:31:31.734Z,20.38
2018-09-02T02:32:31.748Z,20.42
2018-09-02T02:33:31.711Z,20.44
2018-09-02T02:34:31.702Z,20.51
2018-09-02T02:35:31.690Z,20.48
2018-09-02T02:36:31.680Z,20.48
2018-09-02T02:37:31.693Z,20.44
2018-09-02T02:38:31.657Z,20.53
2018-09-02T02:39:31.655Z,20.40
2018-09-02T02:40:31.635Z,20.37
2018-09-02T02:41:31.623Z,20.44
2018-09-02T02:42:31.636Z,20.30
2018-09-02T02:43:31.602Z,20.35
2018-09-02T02:44:31.588Z,20.38
2018-09-02T02:45:31.580Z,20.31
2018-09-02T02:46:31.569Z,20.35
2018-09-02T02:47:31.559Z,20.34
2018-09-02T02:48:31.571Z,20.31
2018-09-02T02:49:31.536Z,20.35
2018-09-02T02:50:31.523Z,20.30
2018-09-02T02:51:31.514Z,20.33
2018-09-02T02:52:31.502Z,20.41
2018-09-02T02:53:31.513Z,20.30
2018-09-02T02:54:31.483Z,20.33
2018-09-02T02:55:31.469Z,20.33
2018-09-02T02:56:31.455Z,20.33
2018-09-02T02:57:31.445Z,20.38
2018-09-02T02:58:31.464Z,20.33
2018-09-02T02:59:31.423Z,20.33
2018-09-02T03:00:31.414Z,20.40
2018-09-02T03:01:31.401Z,20.33
2018-09-02T03:02:31.390Z,20.38
2018-09-02T03:03:31.401Z,20.34
2018-09-02T03:04:31.367Z,20.31
2018-09-02T03:05:31.357Z,20.31
2018-09-02T03:06:31.344Z,20.23
2018-09-02T03:07:31.334Z,20.33
2018-09-02T03:08:31.348Z,20.34
2018-09-02T03:09:31.310Z,20.26
2018-09-02T03:10:31.300Z,20.30
2018-09-02T03:11:31.287Z,20.27
2018-09-02T03:12:31.279Z,20.25
2018-09-02T03:13:31.296Z,20.25
2018-09-02T03:14:31.256Z,20.26
2018-09-02T03:15:31.244Z,20.22
2018-09-02T03:16:31.234Z,20.25
2018-09-02T03:17:31.234Z,20.27
2018-09-02T03:18:31.238Z,20.23
2018-09-02T03:19:31.201Z,20.26
2018-09-02T03:20:31.190Z,20.22
2018-09-02T03:21:31.180Z,20.22
2018-09-02T03:22:31.167Z,20.26
2018-09-02T03:23:31.182Z,20.26
2018-09-02T03:24:31.145Z,20.22
2018-09-02T03:25:31.134Z,20.26
2018-09-02T03:26:31.123Z,20.23
2018-09-02T03:27:31.116Z,20.20
2018-09-02T03:28:31.124Z,20.20
2018-09-02T03:29:31.090Z,20.26
2018-09-02T03:30:31.080Z,20.26
2018-09-02T03:31:31.080Z,20.25
2018-09-02T03:32:31.056Z,20.22
2018-09-02T03:33:31.069Z,20.19
2018-09-02T03:34:31.035Z,20.19
2018-09-02T03:35:31.021Z,20.19
2018-09-02T03:36:31.010Z,20.16
2018-09-02T03:37:31.002Z,20.20
2018-09-02T03:38:31.015Z,20.23
2018-09-02T03:39:30.978Z,20.19
2018-09-02T03:40:30.967Z,20.16
2018-09-02T03:41:30.956Z,20.20
2018-09-02T03:42:30.943Z,20.17
2018-09-02T03:43:30.961Z,20.13
2018-09-02T03:44:30.922Z,20.17
2018-09-02T03:45:30.911Z,20.15
2018-09-02T03:46:30.901Z,20.15
2018-09-02T03:47:30.891Z,20.20
2018-09-02T03:48:30.903Z,20.08
2018-09-02T03:49:30.867Z,20.10
2018-09-02T03:50:30.856Z,20.13
2018-09-02T03:51:30.846Z,20.08
2018-09-02T03:52:30.844Z,20.04
2018-09-02T03:53:30.846Z,20.01
2018-09-02T03:54:30.810Z,20.05
2018-09-02T03:55:30.800Z,20.01
2018-09-02T03:56:30.788Z,20.04
2018-09-02T03:57:30.779Z,20.00
2018-09-02T03:58:30.795Z,20.02
2018-09-02T03:59:30.756Z,20.02
2018-09-02T04:00:30.750Z,20.01
2018-09-02T04:01:30.734Z,20.00
2018-09-02T04:02:30.722Z,19.97
2018-09-02T04:03:30.736Z,20.00
2018-09-02T04:04:30.700Z,19.92
2018-09-02T04:05:30.690Z,20.02
2018-09-02T04:06:30.678Z,20.00
2018-09-02T04:07:30.670Z,19.98
2018-09-02T04:08:30.686Z,19.95
2018-09-02T04:09:30.645Z,19.95
2018-09-02T04:10:30.637Z,20.07
2018-09-02T04:11:30.681Z,19.92
2018-09-02T04:12:30.611Z,19.95
2018-09-02T04:13:30.626Z,19.94
2018-09-02T04:14:30.588Z,20.02
2018-09-02T04:15:30.578Z,19.95
2018-09-02T04:16:30.566Z,20.00
2018-09-02T04:17:30.555Z,19.97
2018-09-02T04:18:31.963Z,19.98
2018-09-02T04:19:30.539Z,19.97
2018-09-02T04:20:30.523Z,19.94
2018-09-02T04:21:30.512Z,19.98
2018-09-02T04:22:30.499Z,19.94
2018-09-02T04:23:30.513Z,19.94
2018-09-02T04:24:30.479Z,19.98
2018-09-02T04:25:30.468Z,19.94
2018-09-02T04:26:30.457Z,19.92
2018-09-02T04:27:30.445Z,19.94
2018-09-02T04:28:30.435Z,19.89
2018-09-02T04:29:30.448Z,19.90
2018-09-02T04:30:30.413Z,19.86
2018-09-02T04:31:30.400Z,19.83
2018-09-02T04:32:30.389Z,19.87
2018-09-02T04:33:30.445Z,19.83
2018-09-02T04:34:30.368Z,19.87
2018-09-02T04:35:30.356Z,19.80
2018-09-02T04:36:30.344Z,19.89
2018-09-02T04:37:30.331Z,19.92
2018-09-02T04:38:30.323Z,19.89
2018-09-02T04:39:30.336Z,19.94
2018-09-02T04:40:30.300Z,19.89
2018-09-02T04:41:30.290Z,19.89
2018-09-02T04:42:30.278Z,19.83
2018-09-02T04:43:30.270Z,19.87
2018-09-02T04:44:30.280Z,19.89
2018-09-02T04:45:30.246Z,19.83
2018-09-02T04:46:30.234Z,19.97
2018-09-02T04:47:30.222Z,19.94
2018-09-02T04:48:30.214Z,19.87
2018-09-02T04:49:30.226Z,19.92
2018-09-02T04:50:30.188Z,19.82
2018-09-02T04:51:30.178Z,19.87
2018-09-02T04:52:30.167Z,19.85
2018-09-02T04:53:30.153Z,19.85
2018-09-02T04:54:30.252Z,19.95
2018-09-02T04:55:30.132Z,19.80
2018-09-02T04:56:30.122Z,19.85
2018-09-02T04:57:30.112Z,19.87
2018-09-02T04:58:30.099Z,19.89
2018-09-02T04:59:30.112Z,19.89
2018-09-02T05:00:30.218Z,19.94
2018-09-02T05:01:30.067Z,19.89
2018-09-02T05:02:30.056Z,19.92
2018-09-02T05:03:30.046Z,19.87
2018-09-02T05:04:30.059Z,19.85
2018-09-02T05:05:30.022Z,19.83
2018-09-02T05:06:30.012Z,19.90
2018-09-02T05:07:30.000Z,19.87
2018-09-02T05:08:29.991Z,19.83
2018-09-02T05:09:30.002Z,19.86
2018-09-02T05:10:29.967Z,19.85
2018-09-02T05:11:29.955Z,19.86
2018-09-02T05:12:29.944Z,19.86
2018-09-02T05:13:29.932Z,19.86
2018-09-02T05:14:29.947Z,19.87
2018-09-02T05:15:29.911Z,19.86
2018-09-02T05:16:29.899Z,19.83
2018-09-02T05:17:29.889Z,19.95
2018-09-02T05:18:29.877Z,19.92
2018-09-02T05:19:32.296Z,19.98
2018-09-02T05:20:29.857Z,20.00
2018-09-02T05:21:29.844Z,19.94
2018-09-02T05:22:29.834Z,19.95
2018-09-02T05:23:29.820Z,19.86
2018-09-02T05:24:29.836Z,19.95
2018-09-02T05:25:29.799Z,19.85
2018-09-02T05:26:29.792Z,19.94
2018-09-02T05:27:29.775Z,19.85
2018-09-02T05:28:29.767Z,19.98
2018-09-02T05:29:29.779Z,19.90
2018-09-02T05:30:29.743Z,19.94
2018-09-02T05:31:29.733Z,19.97
2018-09-02T05:32:29.720Z,19.89
2018-09-02T05:33:29.715Z,20.00
2018-09-02T05:34:29.725Z,20.01
2018-09-02T05:35:29.688Z,20.01
2018-09-02T05:36:29.718Z,20.00
2018-09-02T05:37:29.667Z,19.92
2018-09-02T05:38:29.660Z,19.97
2018-09-02T05:39:29.669Z,20.05
2018-09-02T05:40:29.632Z,19.98
2018-09-02T05:41:29.622Z,20.07
2018-09-02T05:42:29.611Z,20.02
2018-09-02T05:43:29.604Z,20.01
2018-09-02T05:44:29.612Z,20.00
2018-09-02T05:45:29.578Z,20.00
2018-09-02T05:46:29.567Z,20.04
2018-09-02T05:47:29.554Z,20.05
2018-09-02T05:48:29.544Z,20.02
2018-09-02T05:49:29.556Z,20.04
2018-09-02T05:50:29.525Z,20.15
2018-09-02T05:51:29.511Z,20.19
2018-09-02T05:52:29.500Z,20.17
2018-09-02T05:53:29.488Z,20.12
2018-09-02T05:54:29.502Z,20.12
2018-09-02T05:55:29.467Z,20.19
2018-09-02T05:56:29.455Z,20.19
2018-09-02T05:57:29.496Z,20.12
2018-09-02T05:58:29.434Z,20.15
2018-09-02T05:59:29.447Z,20.17
2018-09-02T06:00:29.410Z,20.19
2018-09-02T06:01:29.399Z,20.20
2018-09-02T06:02:29.387Z,20.19
2018-09-02T06:03:29.377Z,20.16
2018-09-02T06:04:29.392Z,20.20
2018-09-02T06:05:29.353Z,20.16
2018-09-02T06:06:29.342Z,20.20
2018-09-02T06:07:29.332Z,20.26
2018-09-02T06:08:29.322Z,20.22
2018-09-02T06:09:29.343Z,20.30
2018-09-02T06:10:29.299Z,20.26
2018-09-02T06:11:29.287Z,20.30
2018-09-02T06:12:29.279Z,20.25
2018-09-02T06:13:29.268Z,20.33
2018-09-02T06:14:29.256Z,20.26
2018-09-02T06:15:29.269Z,20.26
2018-09-02T06:16:29.232Z,20.31
2018-09-02T06:17:29.221Z,20.27
2018-09-02T06:18:29.209Z,20.27
2018-09-02T06:19:29.207Z,20.27
2018-09-02T06:20:32.659Z,20.33
2018-09-02T06:21:29.175Z,20.33
2018-09-02T06:22:29.165Z,20.31
2018-09-02T06:23:29.152Z,20.33
2018-09-02T06:24:29.145Z,20.30
2018-09-02T06:25:29.160Z,20.34
2018-09-02T06:26:29.124Z,20.34
2018-09-02T06:27:29.107Z,20.31
2018-09-02T06:28:29.098Z,20.35
2018-09-02T06:29:29.091Z,20.40
2018-09-02T06:30:29.100Z,20.41
2018-09-02T06:31:29.066Z,20.41
2018-09-02T06:32:29.054Z,20.42
2018-09-02T06:33:29.042Z,20.44
2018-09-02T06:34:29.031Z,20.40
2018-09-02T06:35:29.067Z,20.48
2018-09-02T06:36:29.009Z,20.46
2018-09-02T06:37:28.998Z,20.46
2018-09-02T06:38:28.988Z,20.51
2018-09-02T06:39:28.993Z,20.53
2018-09-02T06:40:28.988Z,20.50
2018-09-02T06:41:28.952Z,20.56
2018-09-02T06:42:28.943Z,20.54
2018-09-02T06:43:28.936Z,20.57
2018-09-02T06:44:28.924Z,20.54
2018-09-02T06:45:28.932Z,20.56
2018-09-02T06:46:28.896Z,20.57
2018-09-02T06:47:28.886Z,20.64
2018-09-02T06:48:28.876Z,20.61
2018-09-02T06:49:28.866Z,20.68
2018-09-02T06:50:28.880Z,20.57
2018-09-02T06:51:28.843Z,20.63
2018-09-02T06:52:28.831Z,20.71
2018-09-02T06:53:28.822Z,20.66
2018-09-02T06:54:28.809Z,20.66
2018-09-02T06:55:28.836Z,20.71
2018-09-02T06:56:28.786Z,20.64
2018-09-02T06:57:28.775Z,20.69
2018-09-02T06:58:28.827Z,20.69
2018-09-02T06:59:28.755Z,20.71
2018-09-02T07:00:28.766Z,20.76
2018-09-02T07:01:28.730Z,20.75
2018-09-02T07:02:28.719Z,20.71
2018-09-02T07:03:28.708Z,20.71
2018-09-02T07:04:28.698Z,20.69
2018-09-02T07:05:28.712Z,20.82
2018-09-02T07:06:28.680Z,20.75
2018-09-02T07:07:28.696Z,20.75
2018-09-02T07:08:28.651Z,20.82
2018-09-02T07:09:28.640Z,20.73
2018-09-02T07:10:28.656Z,20.76
2018-09-02T07:11:28.620Z,20.78
2018-09-02T07:12:28.608Z,20.82
2018-09-02T07:13:28.600Z,20.88
2018-09-02T07:14:28.720Z,20.83
2018-09-02T07:15:28.600Z,20.78
2018-09-02T07:16:28.562Z,20.85
2018-09-02T07:17:28.550Z,20.81
2018-09-02T07:18:28.541Z,20.82
2018-09-02T07:19:28.529Z,20.81
2018-09-02T07:20:28.545Z,20.85
2018-09-02T07:21:28.516Z,20.83
2018-09-02T07:22:28.497Z,20.83
2018-09-02T07:23:28.489Z,20.91
2018-09-02T07:24:28.474Z,20.85
2018-09-02T07:25:28.489Z,20.87
2018-09-02T07:26:28.452Z,20.75
2018-09-02T07:27:28.441Z,20.78
2018-09-02T07:28:28.430Z,20.73
2018-09-02T07:29:28.416Z,20.76
2018-09-02T07:30:28.435Z,20.82
2018-09-02T07:31:28.419Z,20.83
2018-09-02T07:32:28.384Z,20.81
2018-09-02T07:33:28.372Z,20.81
2018-09-02T07:34:28.362Z,20.85
2018-09-02T07:35:28.376Z,20.79
2018-09-02T07:36:28.338Z,20.81
2018-09-02T07:37:28.335Z,20.97
2018-09-02T07:38:28.316Z,20.98
2018-09-02T07:39:28.305Z,20.76
2018-09-02T07:40:28.321Z,20.79
2018-09-02T07:41:28.286Z,20.76
2018-09-02T07:42:28.274Z,20.81
2018-09-02T07:43:28.262Z,20.83
2018-09-02T07:44:28.251Z,20.79
2018-09-02T07:45:28.265Z,20.82
2018-09-02T07:46:28.228Z,20.81
2018-09-02T07:47:28.218Z,20.85
2018-09-02T07:48:28.204Z,20.85
2018-09-02T07:49:28.198Z,20.76
2018-09-02T07:50:28.211Z,20.83
2018-09-02T07:51:28.173Z,20.85
2018-09-02T07:52:28.160Z,20.82
2018-09-02T07:53:28.151Z,20.82
2018-09-02T07:54:28.191Z,20.90
2018-09-02T07:55:28.131Z,20.93
2018-09-02T07:56:28.142Z,20.98
2018-09-02T07:57:28.105Z,21.01
2018-09-02T07:58:28.094Z,20.97
2018-09-02T07:59:28.085Z,21.03
2018-09-02T08:00:28.096Z,21.00
2018-09-02T08:01:28.062Z,20.97
2018-09-02T08:02:28.051Z,20.98
2018-09-02T08:03:28.040Z,21.00
2018-09-02T08:04:28.027Z,21.00
2018-09-02T08:05:28.019Z,21.05
2018-09-02T08:06:28.031Z,21.01
2018-09-02T08:07:27.992Z,21.01
2018-09-02T08:08:27.986Z,20.97
2018-09-02T08:09:27.973Z,21.01
2018-09-02T08:10:27.963Z,21.01
2018-09-02T08:11:27.976Z,21.11
2018-09-02T08:12:27.951Z,20.98
2018-09-02T08:13:27.928Z,21.03
2018-09-02T08:14:27.919Z,21.00
2018-09-02T08:15:27.908Z,20.97
2018-09-02T08:16:27.917Z,21.08
2018-09-02T08:17:27.884Z,20.96
2018-09-02T08:18:27.872Z,20.94
2018-09-02T08:19:27.861Z,21.00
2018-09-02T08:20:27.850Z,21.09
2018-09-02T08:21:27.862Z,21.11
2018-09-02T08:22:27.836Z,21.13
2018-09-02T08:23:27.816Z,21.15
2018-09-02T08:24:27.805Z,21.11
2018-09-02T08:25:27.793Z,21.06
2018-09-02T08:26:27.829Z,21.05
2018-09-02T08:27:27.772Z,21.00
2018-09-02T08:28:27.759Z,21.09
2018-09-02T08:29:27.747Z,21.09
2018-09-02T08:30:27.735Z,21.16
2018-09-02T08:31:27.753Z,21.11
2018-09-02T08:32:27.717Z,21.09
2018-09-02T08:33:27.703Z,21.16
2018-09-02T08:34:27.693Z,21.19
2018-09-02T08:35:27.683Z,21.18
2018-09-02T08:36:27.695Z,21.16
2018-09-02T08:37:27.659Z,21.21
2018-09-02T08:38:27.648Z,21.18
2018-09-02T08:39:27.636Z,21.24
2018-09-02T08:40:27.625Z,21.21
2018-09-02T08:41:27.641Z,21.22
2018-09-02T08:42:27.609Z,21.19
2018-09-02T08:43:27.590Z,21.21
2018-09-02T08:44:27.583Z,21.21
2018-09-02T08:45:27.571Z,21.19
2018-09-02T08:46:27.584Z,21.09
2018-09-02T08:47:27.549Z,21.22
2018-09-02T08:48:27.536Z,21.11
2018-09-02T08:49:27.527Z,21.16
2018-09-02T08:50:27.599Z,21.18
2018-09-02T08:51:27.529Z,21.13
2018-09-02T08:52:27.496Z,21.26
2018-09-02T08:53:27.482Z,21.27
2018-09-02T08:54:27.493Z,21.27
2018-09-02T08:55:27.459Z,21.26
2018-09-02T08:56:27.474Z,21.16
2018-09-02T08:57:27.436Z,21.09
2018-09-02T08:58:27.427Z,21.16
2018-09-02T08:59:27.414Z,21.16
2018-09-02T09:00:27.401Z,21.26
2018-09-02T09:01:27.417Z,21.12
2018-09-02T09:02:27.385Z,21.16
2018-09-02T09:03:27.369Z,21.22
2018-09-02T09:04:27.360Z,21.30
2018-09-02T09:05:27.348Z,21.34
2018-09-02T09:06:27.364Z,21.30
2018-09-02T09:07:27.333Z,21.33
2018-09-02T09:08:27.559Z,21.40
2018-09-02T09:09:27.303Z,21.37
2018-09-02T09:10:27.291Z,21.37
2018-09-02T09:11:27.308Z,21.49
2018-09-02T09:12:27.271Z,21.51
2018-09-02T09:13:27.259Z,21.42
2018-09-02T09:14:27.246Z,21.45
2018-09-02T09:15:27.237Z,21.56
2018-09-02T09:16:27.252Z,21.42
2018-09-02T09:17:27.213Z,21.55
2018-09-02T09:18:27.205Z,21.58
2018-09-02T09:19:27.192Z,21.59
2018-09-02T09:20:27.184Z,21.63
2018-09-02T09:21:27.251Z,21.64
2018-09-02T09:22:27.184Z,21.56
2018-09-02T09:23:27.148Z,21.61
2018-09-02T09:24:27.138Z,21.64
2018-09-02T09:25:27.129Z,21.61
2018-09-02T09:26:27.141Z,21.64
2018-09-02T09:27:27.105Z,21.67
2018-09-02T09:28:27.092Z,21.74
2018-09-02T09:29:27.082Z,21.71
2018-09-02T09:30:27.072Z,21.70
2018-09-02T09:31:27.087Z,21.75
2018-09-02T09:32:27.077Z,21.77
2018-09-02T09:33:27.039Z,21.68
2018-09-02T09:34:27.027Z,21.82
2018-09-02T09:35:27.017Z,21.79
2018-09-02T09:36:27.031Z,21.74
2018-09-02T09:37:26.994Z,21.79
2018-09-02T09:38:26.985Z,21.81
2018-09-02T09:39:26.973Z,21.73
2018-09-02T09:40:26.962Z,21.74
2018-09-02T09:41:26.951Z,21.66
2018-09-02T09:42:26.964Z,21.70
2018-09-02T09:43:26.928Z,21.79
2018-09-02T09:44:26.924Z,21.74
2018-09-02T09:45:26.905Z,21.74
2018-09-02T09:46:26.899Z,21.81
2018-09-02T09:47:26.910Z,21.68
2018-09-02T09:48:26.872Z,21.74
2018-09-02T09:49:26.864Z,21.75
2018-09-02T09:50:26.850Z,21.83
2018-09-02T09:51:26.843Z,21.81
2018-09-02T09:52:26.855Z,21.82
2018-09-02T09:53:26.819Z,21.81
2018-09-02T09:54:26.808Z,21.90
2018-09-02T09:55:26.820Z,21.89
2018-09-02T09:56:26.788Z,21.93
2018-09-02T09:57:26.802Z,21.86
2018-09-02T09:58:26.762Z,21.99
2018-09-02T09:59:26.753Z,22.06
2018-09-02T10:00:26.744Z,21.98
2018-09-02T10:01:26.736Z,22.06
2018-09-02T10:02:26.745Z,21.98
2018-09-02T10:03:26.709Z,22.09
2018-09-02T10:04:26.698Z,22.08
2018-09-02T10:05:26.690Z,22.09
2018-09-02T10:06:26.674Z,22.04
2018-09-02T10:07:26.687Z,22.12
2018-09-02T10:08:26.654Z,22.12
2018-09-02T10:09:26.647Z,22.09
2018-09-02T10:10:26.684Z,22.20
2018-09-02T10:11:26.620Z,22.21
2018-09-02T10:12:26.638Z,22.15
2018-09-02T10:13:26.601Z,22.23
2018-09-02T10:14:26.590Z,22.19
2018-09-02T10:15:26.577Z,22.21
2018-09-02T10:16:26.566Z,22.27
2018-09-02T10:17:26.582Z,22.35
2018-09-02T10:18:26.543Z,22.26
2018-09-02T10:19:26.538Z,22.29
2018-09-02T10:20:26.521Z,22.39
2018-09-02T10:21:26.511Z,22.35
2018-09-02T10:22:26.525Z,22.31
2018-09-02T10:23:26.489Z,22.36
2018-09-02T10:24:26.478Z,22.39
2018-09-02T10:25:26.466Z,22.46
2018-09-02T10:26:26.455Z,22.36
2018-09-02T10:27:26.581Z,22.46
2018-09-02T10:28:26.433Z,22.44
2018-09-02T10:29:26.422Z,22.46
2018-09-02T10:30:26.410Z,22.54
2018-09-02T10:31:26.401Z,22.70
2018-09-02T10:32:26.420Z,22.72
2018-09-02T10:33:26.420Z,22.76
2018-09-02T10:34:26.365Z,22.76
2018-09-02T10:35:26.355Z,22.84
2018-09-02T10:36:26.345Z,22.86
2018-09-02T10:37:26.357Z,22.96
2018-09-02T10:38:26.323Z,23.01
2018-09-02T10:39:26.310Z,23.12
2018-09-02T10:40:26.302Z,23.11
2018-09-02T10:41:26.330Z,23.18
2018-09-02T10:42:26.303Z,23.25
2018-09-02T10:43:26.266Z,23.37
2018-09-02T10:44:26.256Z,23.34
2018-09-02T10:45:26.243Z,23.45
2018-09-02T10:46:26.233Z,23.49
2018-09-02T10:47:26.255Z,23.56
2018-09-02T10:48:26.211Z,23.64
2018-09-02T10:49:26.199Z,23.67
2018-09-02T10:50:26.188Z,23.64
2018-09-02T10:51:26.175Z,23.69
2018-09-02T10:52:26.189Z,23.68
2018-09-02T10:53:26.158Z,23.82
2018-09-02T10:54:26.143Z,23.86
2018-09-02T10:55:26.137Z,23.93
2018-09-02T10:56:26.138Z,23.90
2018-09-02T10:57:26.136Z,23.84
2018-09-02T10:58:26.100Z,23.89
2018-09-02T10:59:26.147Z,23.93
2018-09-02T11:00:26.078Z,24.02
2018-09-02T11:01:26.066Z,23.92
2018-09-02T11:02:26.081Z,23.96
2018-09-02T11:03:26.044Z,23.93
2018-09-02T11:04:26.036Z,24.09
2018-09-02T11:05:26.023Z,24.04
2018-09-02T11:06:26.012Z,24.05
2018-09-02T11:07:26.025Z,24.12
2018-09-02T11:08:25.991Z,24.09
2018-09-02T11:09:25.979Z,24.18
2018-09-02T11:10:25.965Z,24.14
2018-09-02T11:11:25.956Z,24.14
2018-09-02T11:12:25.971Z,24.18
2018-09-02T11:13:25.966Z,24.30
2018-09-02T11:14:25.924Z,24.12
2018-09-02T11:15:25.914Z,24.18
2018-09-02T11:16:25.899Z,24.12
2018-09-02T11:17:25.895Z,24.21
2018-09-02T11:18:25.903Z,24.24
2018-09-02T11:19:25.867Z,24.26
2018-09-02T11:20:25.856Z,24.26
2018-09-02T11:21:25.847Z,24.27
2018-09-02T11:22:25.866Z,24.24
2018-09-02T11:23:25.823Z,24.27
2018-09-02T11:24:25.812Z,24.29
2018-09-02T11:25:25.802Z,24.31
2018-09-02T11:26:25.791Z,24.36
2018-09-02T11:27:25.782Z,24.33
2018-09-02T11:28:25.794Z,24.33
2018-09-02T11:29:25.757Z,24.31
2018-09-02T11:30:25.747Z,24.29
2018-09-02T11:31:25.738Z,24.26
2018-09-02T11:32:25.727Z,24.19
2018-09-02T11:33:25.740Z,24.21
2018-09-02T11:34:25.704Z,24.15
2018-09-02T11:35:25.694Z,24.15
2018-09-02T11:36:25.681Z,24.15
2018-09-02T11:37:25.672Z,24.11
2018-09-02T11:38:25.684Z,24.08
2018-09-02T11:39:25.649Z,24.05
2018-09-02T11:40:25.637Z,24.06
2018-09-02T11:41:25.627Z,24.00
2018-09-02T11:42:25.617Z,24.00
2018-09-02T11:43:25.632Z,23.94
2018-09-02T11:44:25.595Z,24.00
2018-09-02T11:45:25.583Z,23.93
2018-09-02T11:46:25.576Z,24.05
2018-09-02T11:47:25.559Z,24.00
2018-09-02T11:48:25.574Z,24.06
2018-09-02T11:49:25.539Z,24.11
2018-09-02T11:50:25.527Z,24.15
2018-09-02T11:51:25.516Z,24.21
2018-09-02T11:52:25.505Z,24.26
2018-09-02T11:53:25.519Z,24.30
2018-09-02T11:54:25.483Z,24.30
2018-09-02T11:55:25.472Z,24.29
2018-09-02T11:56:25.484Z,24.27
2018-09-02T11:57:25.449Z,24.24
2018-09-02T11:58:25.462Z,24.29
2018-09-02T11:59:25.427Z,24.33
2018-09-02T12:00:25.417Z,24.24
2018-09-02T12:01:25.405Z,24.19
2018-09-02T12:02:25.394Z,24.12
2018-09-02T12:03:25.410Z,24.16
2018-09-02T12:04:25.373Z,24.11
2018-09-02T12:05:25.362Z,24.11
2018-09-02T12:06:25.351Z,24.04
2018-09-02T12:07:25.340Z,24.08
2018-09-02T12:08:25.352Z,23.99
2018-09-02T12:09:25.316Z,24.04
2018-09-02T12:10:25.306Z,24.00
2018-09-02T12:11:25.297Z,23.94
2018-09-02T12:12:25.285Z,24.00
2018-09-02T12:13:25.300Z,23.99
2018-09-02T12:14:25.265Z,23.96
2018-09-02T12:15:25.257Z,23.99
2018-09-02T12:16:25.241Z,23.96
2018-09-02T12:17:25.230Z,23.93
2018-09-02T12:18:25.245Z,23.92
2018-09-02T12:19:25.208Z,23.97
2018-09-02T12:20:25.198Z,24.02
2018-09-02T12:21:25.186Z,24.02
2018-09-02T12:22:25.174Z,24.02
2018-09-02T12:23:25.189Z,24.06
2018-09-02T12:24:25.152Z,24.05
2018-09-02T12:25:25.140Z,24.08
2018-09-02T12:26:25.131Z,24.11
2018-09-02T12:27:25.120Z,24.11
2018-09-02T12:28:25.133Z,24.09
2018-09-02T12:29:25.099Z,24.12
2018-09-02T12:30:25.087Z,24.11
2018-09-02T12:31:25.092Z,24.11
2018-09-02T12:32:25.067Z,24.06
2018-09-02T12:33:25.079Z,24.08
2018-09-02T12:34:25.042Z,24.09
2018-09-02T12:35:25.032Z,24.12
2018-09-02T12:36:25.021Z,24.06
2018-09-02T12:37:25.010Z,23.96
2018-09-02T12:38:25.026Z,24.09
2018-09-02T12:39:24.987Z,24.02
2018-09-02T12:40:24.975Z,23.99
2018-09-02T12:41:24.964Z,23.99
2018-09-02T12:42:24.955Z,23.97
2018-09-02T12:43:24.971Z,23.92
2018-09-02T12:44:24.932Z,23.94
2018-09-02T12:45:24.920Z,23.96
2018-09-02T12:46:24.911Z,23.89
2018-09-02T12:47:24.902Z,23.92
2018-09-02T12:48:24.915Z,23.93
2018-09-02T12:49:24.878Z,23.92
2018-09-02T12:50:24.865Z,23.89
2018-09-02T12:51:24.857Z,23.86
2018-09-02T12:52:24.844Z,23.92